sensor_id;sensor_type;location;lat;lon;timestamp;P1;durP1;ratioP1;P2;durP2;ratioP2
48550;SDS011;34397;51.176;6.738;2023-04-07T00:00:50;7.32;;;5.88;;
48550;SDS011;34397;51.176;6.738;2023-04-07T00:03:24;7.45;;;5.95;;
48550;SDS011;34397;51.176;6.738;2023-04-07T00:05:56;7.95;;;6.65;;
48550;SDS011;34397;51.176;6.738;2023-04-07T00:08:28;8.30;;;6.40;;
48550;SDS011;34397;51.176;6.738;2023-04-07T00:11:00;7.82;;;6.20;;
48550;SDS011;34397;51.176;6.738;2023-04-07T00:13:32;8.45;;;6.20;;
48550;SDS011;34397;51.176;6.738;2023-04-07T00:16:04;7.15;;;6.28;;
48550;SDS011;34397;51.176;6.738;2023-04-07T00:18:37;9.00;;;7.00;;
48550;SDS011;34397;51.176;6.738;2023-04-07T00:21:09;9.18;;;6.72;;
48550;SDS011;34397;51.176;6.738;2023-04-07T00:23:41;9.55;;;7.03;;
48550;SDS011;34397;51.176;6.738;2023-04-07T00:28:45;9.73;;;6.30;;
48550;SDS011;34397;51.176;6.738;2023-04-07T00:31:17;8.63;;;7.00;;
48550;SDS011;34397;51.176;6.738;2023-04-07T00:33:50;9.35;;;6.60;;
48550;SDS011;34397;51.176;6.738;2023-04-07T00:36:23;7.43;;;6.28;;
48550;SDS011;34397;51.176;6.738;2023-04-07T00:38:56;11.10;;;7.50;;
48550;SDS011;34397;51.176;6.738;2023-04-07T00:41:27;10.73;;;7.15;;
48550;SDS011;34397;51.176;6.738;2023-04-07T00:43:59;9.05;;;7.05;;
48550;SDS011;34397;51.176;6.738;2023-04-07T00:46:31;8.55;;;6.53;;
48550;SDS011;34397;51.176;6.738;2023-04-07T00:49:05;8.77;;;6.88;;
48550;SDS011;34397;51.176;6.738;2023-04-07T00:51:37;9.52;;;7.28;;
48550;SDS011;34397;51.176;6.738;2023-04-07T00:54:09;10.20;;;7.43;;
48550;SDS011;34397;51.176;6.738;2023-04-07T00:56:41;10.02;;;7.25;;
48550;SDS011;34397;51.176;6.738;2023-04-07T00:59:13;8.77;;;6.97;;
48550;SDS011;34397;51.176;6.738;2023-04-07T01:01:47;9.68;;;6.82;;
48550;SDS011;34397;51.176;6.738;2023-04-07T01:04:31;9.70;;;7.18;;
48550;SDS011;34397;51.176;6.738;2023-04-07T01:07:12;10.15;;;7.45;;
48550;SDS011;34397;51.176;6.738;2023-04-07T01:09:51;11.18;;;7.53;;
48550;SDS011;34397;51.176;6.738;2023-04-07T01:12:34;8.35;;;7.38;;
48550;SDS011;34397;51.176;6.738;2023-04-07T01:15:15;9.90;;;8.02;;
48550;SDS011;34397;51.176;6.738;2023-04-07T01:17:53;10.75;;;8.65;;
48550;SDS011;34397;51.176;6.738;2023-04-07T01:20:32;11.10;;;8.07;;
48550;SDS011;34397;51.176;6.738;2023-04-07T01:23:06;11.35;;;9.07;;
48550;SDS011;34397;51.176;6.738;2023-04-07T01:28:43;13.93;;;9.98;;
48550;SDS011;34397;51.176;6.738;2023-04-07T01:31:39;14.95;;;10.77;;
48550;SDS011;34397;51.176;6.738;2023-04-07T01:34:12;13.05;;;10.13;;
48550;SDS011;34397;51.176;6.738;2023-04-07T01:36:45;14.13;;;11.25;;
48550;SDS011;34397;51.176;6.738;2023-04-07T01:39:19;15.50;;;11.75;;
48550;SDS011;34397;51.176;6.738;2023-04-07T01:41:52;17.13;;;11.95;;
48550;SDS011;34397;51.176;6.738;2023-04-07T01:44:25;17.10;;;12.35;;
48550;SDS011;34397;51.176;6.738;2023-04-07T01:47:00;19.88;;;13.30;;
48550;SDS011;34397;51.176;6.738;2023-04-07T01:49:32;17.27;;;13.27;;
48550;SDS011;34397;51.176;6.738;2023-04-07T01:52:07;21.83;;;14.48;;
48550;SDS011;34397;51.176;6.738;2023-04-07T01:54:39;20.05;;;14.63;;
48550;SDS011;34397;51.176;6.738;2023-04-07T01:57:11;21.40;;;14.73;;
48550;SDS011;34397;51.176;6.738;2023-04-07T01:59:44;20.60;;;15.70;;
48550;SDS011;34397;51.176;6.738;2023-04-07T02:02:18;21.80;;;16.10;;
48550;SDS011;34397;51.176;6.738;2023-04-07T02:04:51;23.08;;;16.80;;
48550;SDS011;34397;51.176;6.738;2023-04-07T02:07:28;26.10;;;16.70;;
48550;SDS011;34397;51.176;6.738;2023-04-07T02:12:43;25.48;;;17.92;;
48550;SDS011;34397;51.176;6.738;2023-04-07T02:15:17;25.50;;;17.60;;
48550;SDS011;34397;51.176;6.738;2023-04-07T02:17:51;26.38;;;18.40;;
48550;SDS011;34397;51.176;6.738;2023-04-07T02:20:25;23.90;;;16.90;;
48550;SDS011;34397;51.176;6.738;2023-04-07T02:22:58;24.13;;;16.60;;
48550;SDS011;34397;51.176;6.738;2023-04-07T02:25:30;25.88;;;17.90;;
48550;SDS011;34397;51.176;6.738;2023-04-07T02:28:03;25.35;;;17.50;;
48550;SDS011;34397;51.176;6.738;2023-04-07T02:30:35;25.27;;;17.85;;
48550;SDS011;34397;51.176;6.738;2023-04-07T02:33:08;24.98;;;17.67;;
48550;SDS011;34397;51.176;6.738;2023-04-07T02:35:40;25.38;;;17.95;;
48550;SDS011;34397;51.176;6.738;2023-04-07T02:38:12;24.60;;;17.30;;
48550;SDS011;34397;51.176;6.738;2023-04-07T02:40:44;26.17;;;18.00;;
48550;SDS011;34397;51.176;6.738;2023-04-07T02:43:16;26.52;;;17.27;;
48550;SDS011;34397;51.176;6.738;2023-04-07T02:45:48;26.50;;;18.65;;
48550;SDS011;34397;51.176;6.738;2023-04-07T02:48:21;25.77;;;17.88;;
48550;SDS011;34397;51.176;6.738;2023-04-07T02:50:53;27.65;;;18.63;;
48550;SDS011;34397;51.176;6.738;2023-04-07T02:53:25;25.10;;;16.98;;
48550;SDS011;34397;51.176;6.738;2023-04-07T02:55:57;25.77;;;18.42;;
48550;SDS011;34397;51.176;6.738;2023-04-07T02:58:29;26.45;;;18.65;;
48550;SDS011;34397;51.176;6.738;2023-04-07T03:01:01;24.20;;;17.95;;
48550;SDS011;34397;51.176;6.738;2023-04-07T03:03:34;27.27;;;18.00;;
48550;SDS011;34397;51.176;6.738;2023-04-07T03:06:06;27.58;;;19.35;;
48550;SDS011;34397;51.176;6.738;2023-04-07T03:08:38;29.58;;;19.33;;
48550;SDS011;34397;51.176;6.738;2023-04-07T03:11:09;29.05;;;19.35;;
48550;SDS011;34397;51.176;6.738;2023-04-07T03:13:41;29.20;;;18.75;;
48550;SDS011;34397;51.176;6.738;2023-04-07T03:16:13;29.15;;;18.98;;
48550;SDS011;34397;51.176;6.738;2023-04-07T03:18:46;27.80;;;18.60;;
48550;SDS011;34397;51.176;6.738;2023-04-07T03:21:18;29.52;;;20.05;;
48550;SDS011;34397;51.176;6.738;2023-04-07T03:23:50;27.65;;;19.77;;
48550;SDS011;34397;51.176;6.738;2023-04-07T03:26:21;26.48;;;18.50;;
48550;SDS011;34397;51.176;6.738;2023-04-07T03:28:53;23.73;;;15.20;;
48550;SDS011;34397;51.176;6.738;2023-04-07T03:31:25;22.77;;;15.57;;
48550;SDS011;34397;51.176;6.738;2023-04-07T03:33:58;21.80;;;13.93;;
48550;SDS011;34397;51.176;6.738;2023-04-07T03:36:30;20.10;;;13.02;;
48550;SDS011;34397;51.176;6.738;2023-04-07T03:39:02;22.13;;;13.45;;
48550;SDS011;34397;51.176;6.738;2023-04-07T03:41:34;18.00;;;12.70;;
48550;SDS011;34397;51.176;6.738;2023-04-07T03:44:06;21.40;;;12.57;;
48550;SDS011;34397;51.176;6.738;2023-04-07T03:46:38;16.33;;;11.30;;
48550;SDS011;34397;51.176;6.738;2023-04-07T03:49:11;20.50;;;12.63;;
48550;SDS011;34397;51.176;6.738;2023-04-07T03:51:43;17.40;;;11.38;;
48550;SDS011;34397;51.176;6.738;2023-04-07T03:54:15;17.35;;;11.82;;
48550;SDS011;34397;51.176;6.738;2023-04-07T03:56:46;18.77;;;12.60;;
48550;SDS011;34397;51.176;6.738;2023-04-07T03:59:18;17.58;;;11.43;;
48550;SDS011;34397;51.176;6.738;2023-04-07T04:01:50;15.30;;;11.18;;
48550;SDS011;34397;51.176;6.738;2023-04-07T04:04:24;16.27;;;10.98;;
48550;SDS011;34397;51.176;6.738;2023-04-07T04:06:55;16.20;;;11.07;;
48550;SDS011;34397;51.176;6.738;2023-04-07T04:09:27;22.58;;;12.13;;
48550;SDS011;34397;51.176;6.738;2023-04-07T04:11:59;19.50;;;12.07;;
48550;SDS011;34397;51.176;6.738;2023-04-07T04:14:31;20.25;;;11.88;;
48550;SDS011;34397;51.176;6.738;2023-04-07T04:17:03;15.52;;;11.90;;
48550;SDS011;34397;51.176;6.738;2023-04-07T04:19:36;16.25;;;11.68;;
48550;SDS011;34397;51.176;6.738;2023-04-07T04:22:08;15.50;;;11.57;;
48550;SDS011;34397;51.176;6.738;2023-04-07T04:24:40;19.00;;;12.23;;
48550;SDS011;34397;51.176;6.738;2023-04-07T04:27:12;21.52;;;12.70;;
48550;SDS011;34397;51.176;6.738;2023-04-07T04:29:44;17.48;;;12.30;;
48550;SDS011;34397;51.176;6.738;2023-04-07T04:32:17;19.55;;;11.55;;
48550;SDS011;34397;51.176;6.738;2023-04-07T04:34:51;18.25;;;12.02;;
48550;SDS011;34397;51.176;6.738;2023-04-07T04:37:23;18.80;;;11.27;;
48550;SDS011;34397;51.176;6.738;2023-04-07T04:39:55;17.80;;;11.30;;
48550;SDS011;34397;51.176;6.738;2023-04-07T04:42:27;18.73;;;12.52;;
48550;SDS011;34397;51.176;6.738;2023-04-07T04:45:00;16.23;;;11.75;;
48550;SDS011;34397;51.176;6.738;2023-04-07T04:47:32;17.67;;;10.52;;
48550;SDS011;34397;51.176;6.738;2023-04-07T04:50:06;14.10;;;9.95;;
48550;SDS011;34397;51.176;6.738;2023-04-07T04:52:38;18.92;;;11.15;;
48550;SDS011;34397;51.176;6.738;2023-04-07T04:55:10;17.08;;;10.65;;
48550;SDS011;34397;51.176;6.738;2023-04-07T04:57:42;13.90;;;10.10;;
48550;SDS011;34397;51.176;6.738;2023-04-07T05:00:14;14.43;;;9.57;;
48550;SDS011;34397;51.176;6.738;2023-04-07T05:05:19;12.73;;;8.35;;
48550;SDS011;34397;51.176;6.738;2023-04-07T05:07:51;14.38;;;9.35;;
48550;SDS011;34397;51.176;6.738;2023-04-07T05:10:23;13.05;;;8.13;;
48550;SDS011;34397;51.176;6.738;2023-04-07T05:12:55;11.77;;;7.47;;
48550;SDS011;34397;51.176;6.738;2023-04-07T05:15:27;12.95;;;6.88;;
48550;SDS011;34397;51.176;6.738;2023-04-07T05:17:58;10.93;;;7.10;;
48550;SDS011;34397;51.176;6.738;2023-04-07T05:20:32;10.82;;;6.75;;
48550;SDS011;34397;51.176;6.738;2023-04-07T05:23:04;8.27;;;5.95;;
48550;SDS011;34397;51.176;6.738;2023-04-07T05:25:36;9.10;;;6.28;;
48550;SDS011;34397;51.176;6.738;2023-04-07T05:28:08;8.90;;;6.05;;
48550;SDS011;34397;51.176;6.738;2023-04-07T05:30:39;8.77;;;5.90;;
48550;SDS011;34397;51.176;6.738;2023-04-07T05:33:11;8.05;;;5.72;;
48550;SDS011;34397;51.176;6.738;2023-04-07T05:35:44;9.00;;;5.72;;
48550;SDS011;34397;51.176;6.738;2023-04-07T05:38:16;7.53;;;5.30;;
48550;SDS011;34397;51.176;6.738;2023-04-07T05:40:48;8.50;;;5.28;;
48550;SDS011;34397;51.176;6.738;2023-04-07T05:43:20;11.27;;;5.22;;
48550;SDS011;34397;51.176;6.738;2023-04-07T05:45:52;6.90;;;4.30;;
48550;SDS011;34397;51.176;6.738;2023-04-07T05:48:24;11.52;;;4.72;;
48550;SDS011;34397;51.176;6.738;2023-04-07T05:50:57;6.28;;;4.75;;
48550;SDS011;34397;51.176;6.738;2023-04-07T05:53:29;7.93;;;4.82;;
48550;SDS011;34397;51.176;6.738;2023-04-07T05:56:01;8.90;;;5.57;;
48550;SDS011;34397;51.176;6.738;2023-04-07T05:58:33;8.32;;;5.30;;
48550;SDS011;34397;51.176;6.738;2023-04-07T06:01:05;9.48;;;5.53;;
48550;SDS011;34397;51.176;6.738;2023-04-07T06:03:38;7.63;;;5.50;;
48550;SDS011;34397;51.176;6.738;2023-04-07T06:06:11;7.88;;;5.40;;
48550;SDS011;34397;51.176;6.738;2023-04-07T06:08:43;9.88;;;6.10;;
48550;SDS011;34397;51.176;6.738;2023-04-07T06:11:15;10.10;;;6.25;;
48550;SDS011;34397;51.176;6.738;2023-04-07T06:13:47;9.65;;;6.53;;
48550;SDS011;34397;51.176;6.738;2023-04-07T06:16:18;11.85;;;6.85;;
48550;SDS011;34397;51.176;6.738;2023-04-07T06:18:50;11.10;;;7.00;;
48550;SDS011;34397;51.176;6.738;2023-04-07T06:21:23;9.55;;;6.53;;
48550;SDS011;34397;51.176;6.738;2023-04-07T06:23:56;8.52;;;6.22;;
48550;SDS011;34397;51.176;6.738;2023-04-07T06:26:28;7.68;;;6.53;;
48550;SDS011;34397;51.176;6.738;2023-04-07T06:29:01;10.82;;;6.95;;
48550;SDS011;34397;51.176;6.738;2023-04-07T06:31:35;12.10;;;6.40;;
48550;SDS011;34397;51.176;6.738;2023-04-07T06:34:06;8.23;;;6.43;;
48550;SDS011;34397;51.176;6.738;2023-04-07T06:36:43;11.20;;;6.18;;
48550;SDS011;34397;51.176;6.738;2023-04-07T06:39:38;12.85;;;6.70;;
48550;SDS011;34397;51.176;6.738;2023-04-07T06:42:31;8.43;;;6.20;;
48550;SDS011;34397;51.176;6.738;2023-04-07T06:45:03;9.20;;;6.13;;
48550;SDS011;34397;51.176;6.738;2023-04-07T06:47:36;9.20;;;5.60;;
48550;SDS011;34397;51.176;6.738;2023-04-07T06:50:08;9.85;;;6.45;;
48550;SDS011;34397;51.176;6.738;2023-04-07T06:55:14;8.88;;;6.13;;
48550;SDS011;34397;51.176;6.738;2023-04-07T06:57:46;8.85;;;5.97;;
48550;SDS011;34397;51.176;6.738;2023-04-07T07:00:19;9.27;;;5.65;;
48550;SDS011;34397;51.176;6.738;2023-04-07T07:02:52;10.38;;;5.13;;
48550;SDS011;34397;51.176;6.738;2023-04-07T07:05:24;8.10;;;5.53;;
48550;SDS011;34397;51.176;6.738;2023-04-07T07:07:58;9.45;;;5.25;;
48550;SDS011;34397;51.176;6.738;2023-04-07T07:10:31;8.10;;;5.47;;
48550;SDS011;34397;51.176;6.738;2023-04-07T07:13:06;9.85;;;4.97;;
48550;SDS011;34397;51.176;6.738;2023-04-07T07:15:55;9.13;;;5.87;;
48550;SDS011;34397;51.176;6.738;2023-04-07T07:18:26;8.77;;;5.75;;
48550;SDS011;34397;51.176;6.738;2023-04-07T07:20:58;11.95;;;6.40;;
48550;SDS011;34397;51.176;6.738;2023-04-07T07:23:32;9.23;;;6.57;;
48550;SDS011;34397;51.176;6.738;2023-04-07T07:29:40;8.52;;;5.43;;
48550;SDS011;34397;51.176;6.738;2023-04-07T07:32:13;9.85;;;5.32;;
48550;SDS011;34397;51.176;6.738;2023-04-07T07:34:45;10.48;;;6.05;;
48550;SDS011;34397;51.176;6.738;2023-04-07T07:37:16;10.48;;;5.60;;
48550;SDS011;34397;51.176;6.738;2023-04-07T07:39:50;9.35;;;6.05;;
48550;SDS011;34397;51.176;6.738;2023-04-07T07:42:21;8.95;;;6.25;;
48550;SDS011;34397;51.176;6.738;2023-04-07T07:44:56;9.10;;;5.72;;
48550;SDS011;34397;51.176;6.738;2023-04-07T07:47:42;9.35;;;6.38;;
48550;SDS011;34397;51.176;6.738;2023-04-07T07:50:14;10.45;;;6.25;;
48550;SDS011;34397;51.176;6.738;2023-04-07T07:52:46;10.07;;;6.68;;
48550;SDS011;34397;51.176;6.738;2023-04-07T07:55:19;10.27;;;7.25;;
48550;SDS011;34397;51.176;6.738;2023-04-07T07:57:51;10.50;;;6.78;;
48550;SDS011;34397;51.176;6.738;2023-04-07T08:00:23;11.20;;;7.53;;
48550;SDS011;34397;51.176;6.738;2023-04-07T08:02:55;12.95;;;7.43;;
48550;SDS011;34397;51.176;6.738;2023-04-07T08:05:27;11.60;;;7.05;;
48550;SDS011;34397;51.176;6.738;2023-04-07T08:07:59;9.65;;;7.10;;
48550;SDS011;34397;51.176;6.738;2023-04-07T08:10:33;12.25;;;7.13;;
48550;SDS011;34397;51.176;6.738;2023-04-07T08:13:05;10.55;;;6.35;;
48550;SDS011;34397;51.176;6.738;2023-04-07T08:15:37;10.07;;;7.25;;
48550;SDS011;34397;51.176;6.738;2023-04-07T08:18:10;9.68;;;7.20;;
48550;SDS011;34397;51.176;6.738;2023-04-07T08:20:42;11.57;;;7.00;;
48550;SDS011;34397;51.176;6.738;2023-04-07T08:23:14;10.13;;;7.25;;
48550;SDS011;34397;51.176;6.738;2023-04-07T08:25:47;14.57;;;7.78;;
48550;SDS011;34397;51.176;6.738;2023-04-07T08:28:24;9.85;;;7.32;;
48550;SDS011;34397;51.176;6.738;2023-04-07T08:31:04;10.82;;;7.40;;
48550;SDS011;34397;51.176;6.738;2023-04-07T08:34:26;12.80;;;7.25;;
48550;SDS011;34397;51.176;6.738;2023-04-07T08:37:02;13.52;;;7.43;;
48550;SDS011;34397;51.176;6.738;2023-04-07T08:39:35;10.68;;;6.80;;
48550;SDS011;34397;51.176;6.738;2023-04-07T08:42:08;12.65;;;7.35;;
48550;SDS011;34397;51.176;6.738;2023-04-07T08:44:45;12.45;;;7.30;;
48550;SDS011;34397;51.176;6.738;2023-04-07T08:47:20;14.65;;;7.60;;
48550;SDS011;34397;51.176;6.738;2023-04-07T08:50:04;11.45;;;7.07;;
48550;SDS011;34397;51.176;6.738;2023-04-07T08:53:07;12.30;;;7.13;;
48550;SDS011;34397;51.176;6.738;2023-04-07T08:55:43;16.77;;;7.43;;
48550;SDS011;34397;51.176;6.738;2023-04-07T08:58:17;10.65;;;6.40;;
48550;SDS011;34397;51.176;6.738;2023-04-07T09:00:50;11.20;;;6.72;;
48550;SDS011;34397;51.176;6.738;2023-04-07T09:03:22;12.77;;;7.60;;
48550;SDS011;34397;51.176;6.738;2023-04-07T09:08:27;12.57;;;7.22;;
48550;SDS011;34397;51.176;6.738;2023-04-07T09:10:59;14.60;;;6.60;;
48550;SDS011;34397;51.176;6.738;2023-04-07T09:13:32;11.00;;;6.97;;
48550;SDS011;34397;51.176;6.738;2023-04-07T09:16:04;13.35;;;6.70;;
48550;SDS011;34397;51.176;6.738;2023-04-07T09:18:36;9.43;;;6.90;;
48550;SDS011;34397;51.176;6.738;2023-04-07T09:21:08;10.45;;;7.15;;
48550;SDS011;34397;51.176;6.738;2023-04-07T09:23:41;11.93;;;7.15;;
48550;SDS011;34397;51.176;6.738;2023-04-07T09:26:20;10.98;;;6.97;;
48550;SDS011;34397;51.176;6.738;2023-04-07T09:28:55;12.80;;;8.43;;
48550;SDS011;34397;51.176;6.738;2023-04-07T09:31:42;16.33;;;7.47;;
48550;SDS011;34397;51.176;6.738;2023-04-07T09:34:22;15.63;;;7.68;;
48550;SDS011;34397;51.176;6.738;2023-04-07T09:36:57;15.05;;;8.55;;
48550;SDS011;34397;51.176;6.738;2023-04-07T09:39:29;13.43;;;7.38;;
48550;SDS011;34397;51.176;6.738;2023-04-07T09:42:05;12.63;;;7.68;;
48550;SDS011;34397;51.176;6.738;2023-04-07T09:44:39;13.23;;;8.13;;
48550;SDS011;34397;51.176;6.738;2023-04-07T09:47:11;11.02;;;7.00;;
48550;SDS011;34397;51.176;6.738;2023-04-07T09:49:49;11.32;;;7.75;;
48550;SDS011;34397;51.176;6.738;2023-04-07T09:52:24;13.88;;;7.45;;
48550;SDS011;34397;51.176;6.738;2023-04-07T09:55:20;13.73;;;7.85;;
48550;SDS011;34397;51.176;6.738;2023-04-07T09:58:03;14.07;;;7.55;;
48550;SDS011;34397;51.176;6.738;2023-04-07T10:00:47;15.50;;;7.80;;
48550;SDS011;34397;51.176;6.738;2023-04-07T10:03:19;13.82;;;8.35;;
48550;SDS011;34397;51.176;6.738;2023-04-07T10:05:52;12.05;;;7.47;;
48550;SDS011;34397;51.176;6.738;2023-04-07T10:08:24;12.10;;;7.57;;
48550;SDS011;34397;51.176;6.738;2023-04-07T10:10:56;12.15;;;7.97;;
48550;SDS011;34397;51.176;6.738;2023-04-07T10:13:30;12.63;;;7.95;;
48550;SDS011;34397;51.176;6.738;2023-04-07T10:16:05;11.02;;;7.05;;
48550;SDS011;34397;51.176;6.738;2023-04-07T10:18:38;13.27;;;7.50;;
48550;SDS011;34397;51.176;6.738;2023-04-07T10:21:11;10.07;;;6.78;;
48550;SDS011;34397;51.176;6.738;2023-04-07T10:23:47;12.95;;;6.75;;
48550;SDS011;34397;51.176;6.738;2023-04-07T10:26:27;11.80;;;6.85;;
48550;SDS011;34397;51.176;6.738;2023-04-07T10:29:03;10.18;;;6.65;;
48550;SDS011;34397;51.176;6.738;2023-04-07T10:31:41;10.43;;;6.40;;
48550;SDS011;34397;51.176;6.738;2023-04-07T10:34:15;12.68;;;6.65;;
48550;SDS011;34397;51.176;6.738;2023-04-07T10:39:46;13.82;;;7.93;;
48550;SDS011;34397;51.176;6.738;2023-04-07T10:45:16;11.88;;;7.18;;
48550;SDS011;34397;51.176;6.738;2023-04-07T10:48:30;13.65;;;7.95;;
48550;SDS011;34397;51.176;6.738;2023-04-07T10:51:15;16.15;;;8.57;;
48550;SDS011;34397;51.176;6.738;2023-04-07T10:57:10;13.00;;;7.60;;
48550;SDS011;34397;51.176;6.738;2023-04-07T11:00:15;11.27;;;7.88;;
48550;SDS011;34397;51.176;6.738;2023-04-07T11:06:33;14.45;;;8.20;;
48550;SDS011;34397;51.176;6.738;2023-04-07T11:09:05;15.48;;;7.68;;
48550;SDS011;34397;51.176;6.738;2023-04-07T11:11:50;21.92;;;8.48;;
48550;SDS011;34397;51.176;6.738;2023-04-07T11:14:25;13.45;;;7.85;;
48550;SDS011;34397;51.176;6.738;2023-04-07T11:16:58;10.75;;;6.82;;
48550;SDS011;34397;51.176;6.738;2023-04-07T11:19:41;15.15;;;7.90;;
48550;SDS011;34397;51.176;6.738;2023-04-07T11:22:21;11.50;;;7.40;;
48550;SDS011;34397;51.176;6.738;2023-04-07T11:25:00;12.30;;;6.93;;
48550;SDS011;34397;51.176;6.738;2023-04-07T11:27:59;13.50;;;7.32;;
48550;SDS011;34397;51.176;6.738;2023-04-07T11:30:31;13.10;;;7.07;;
48550;SDS011;34397;51.176;6.738;2023-04-07T11:33:05;11.48;;;7.60;;
48550;SDS011;34397;51.176;6.738;2023-04-07T11:35:39;10.93;;;7.50;;
48550;SDS011;34397;51.176;6.738;2023-04-07T11:38:19;11.98;;;6.93;;
48550;SDS011;34397;51.176;6.738;2023-04-07T11:43:24;9.68;;;6.55;;
48550;SDS011;34397;51.176;6.738;2023-04-07T11:46:04;11.90;;;7.82;;
48550;SDS011;34397;51.176;6.738;2023-04-07T11:48:38;10.43;;;7.47;;
48550;SDS011;34397;51.176;6.738;2023-04-07T11:51:16;12.18;;;8.40;;
48550;SDS011;34397;51.176;6.738;2023-04-07T11:53:53;10.68;;;7.53;;
48550;SDS011;34397;51.176;6.738;2023-04-07T11:56:26;11.48;;;7.18;;
48550;SDS011;34397;51.176;6.738;2023-04-07T11:58:59;13.85;;;8.30;;
48550;SDS011;34397;51.176;6.738;2023-04-07T12:01:38;11.07;;;7.30;;
48550;SDS011;34397;51.176;6.738;2023-04-07T12:04:11;10.30;;;7.05;;
48550;SDS011;34397;51.176;6.738;2023-04-07T12:06:46;10.15;;;6.63;;
48550;SDS011;34397;51.176;6.738;2023-04-07T12:09:26;12.05;;;6.20;;
48550;SDS011;34397;51.176;6.738;2023-04-07T12:12:04;13.55;;;7.30;;
48550;SDS011;34397;51.176;6.738;2023-04-07T12:15:08;8.75;;;6.22;;
48550;SDS011;34397;51.176;6.738;2023-04-07T12:18:01;10.85;;;6.63;;
48550;SDS011;34397;51.176;6.738;2023-04-07T12:20:33;9.00;;;6.07;;
48550;SDS011;34397;51.176;6.738;2023-04-07T12:23:07;8.65;;;6.05;;
48550;SDS011;34397;51.176;6.738;2023-04-07T12:25:39;10.63;;;6.53;;
48550;SDS011;34397;51.176;6.738;2023-04-07T12:28:11;9.50;;;6.18;;
48550;SDS011;34397;51.176;6.738;2023-04-07T12:30:43;8.48;;;5.80;;
48550;SDS011;34397;51.176;6.738;2023-04-07T12:33:15;8.10;;;5.65;;
48550;SDS011;34397;51.176;6.738;2023-04-07T12:35:47;10.57;;;5.55;;
48550;SDS011;34397;51.176;6.738;2023-04-07T12:38:20;19.23;;;5.97;;
48550;SDS011;34397;51.176;6.738;2023-04-07T12:40:52;8.85;;;5.82;;
48550;SDS011;34397;51.176;6.738;2023-04-07T12:43:25;8.63;;;5.65;;
48550;SDS011;34397;51.176;6.738;2023-04-07T12:45:57;8.55;;;5.55;;
48550;SDS011;34397;51.176;6.738;2023-04-07T12:48:29;7.80;;;5.38;;
48550;SDS011;34397;51.176;6.738;2023-04-07T12:51:01;7.55;;;4.93;;
48550;SDS011;34397;51.176;6.738;2023-04-07T12:53:35;8.30;;;5.50;;
48550;SDS011;34397;51.176;6.738;2023-04-07T12:56:09;10.20;;;4.63;;
48550;SDS011;34397;51.176;6.738;2023-04-07T12:58:42;7.05;;;4.60;;
48550;SDS011;34397;51.176;6.738;2023-04-07T13:01:13;7.53;;;5.15;;
48550;SDS011;34397;51.176;6.738;2023-04-07T13:03:45;6.45;;;5.10;;
48550;SDS011;34397;51.176;6.738;2023-04-07T13:06:17;7.97;;;5.20;;
48550;SDS011;34397;51.176;6.738;2023-04-07T13:08:51;8.15;;;4.90;;
48550;SDS011;34397;51.176;6.738;2023-04-07T13:11:22;6.95;;;4.55;;
48550;SDS011;34397;51.176;6.738;2023-04-07T13:13:54;8.98;;;5.05;;
48550;SDS011;34397;51.176;6.738;2023-04-07T13:16:28;9.77;;;4.88;;
48550;SDS011;34397;51.176;6.738;2023-04-07T13:19:41;6.45;;;4.82;;
48550;SDS011;34397;51.176;6.738;2023-04-07T13:22:27;10.73;;;4.80;;
48550;SDS011;34397;51.176;6.738;2023-04-07T13:25:10;8.10;;;4.97;;
48550;SDS011;34397;51.176;6.738;2023-04-07T13:27:43;13.05;;;5.20;;
48550;SDS011;34397;51.176;6.738;2023-04-07T13:30:15;8.27;;;5.25;;
48550;SDS011;34397;51.176;6.738;2023-04-07T13:32:47;7.97;;;5.30;;
48550;SDS011;34397;51.176;6.738;2023-04-07T13:35:19;7.30;;;5.20;;
48550;SDS011;34397;51.176;6.738;2023-04-07T13:37:51;10.50;;;5.30;;
48550;SDS011;34397;51.176;6.738;2023-04-07T13:40:24;7.68;;;5.15;;
48550;SDS011;34397;51.176;6.738;2023-04-07T13:42:56;6.20;;;5.22;;
48550;SDS011;34397;51.176;6.738;2023-04-07T13:45:29;10.23;;;5.93;;
48550;SDS011;34397;51.176;6.738;2023-04-07T13:50:56;7.60;;;5.65;;
48550;SDS011;34397;51.176;6.738;2023-04-07T13:53:47;9.20;;;6.53;;
48550;SDS011;34397;51.176;6.738;2023-04-07T13:56:21;9.50;;;5.82;;
48550;SDS011;34397;51.176;6.738;2023-04-07T13:58:52;9.18;;;6.22;;
48550;SDS011;34397;51.176;6.738;2023-04-07T14:01:25;11.77;;;6.63;;
48550;SDS011;34397;51.176;6.738;2023-04-07T14:06:29;10.15;;;5.68;;
48550;SDS011;34397;51.176;6.738;2023-04-07T14:09:01;10.00;;;7.22;;
48550;SDS011;34397;51.176;6.738;2023-04-07T14:11:34;11.80;;;6.90;;
48550;SDS011;34397;51.176;6.738;2023-04-07T14:14:06;8.35;;;6.20;;
48550;SDS011;34397;51.176;6.738;2023-04-07T14:16:38;8.45;;;6.80;;
48550;SDS011;34397;51.176;6.738;2023-04-07T14:19:10;11.85;;;7.22;;
48550;SDS011;34397;51.176;6.738;2023-04-07T14:21:42;12.73;;;7.85;;
48550;SDS011;34397;51.176;6.738;2023-04-07T14:24:15;9.73;;;6.65;;
48550;SDS011;34397;51.176;6.738;2023-04-07T14:26:48;8.85;;;6.82;;
48550;SDS011;34397;51.176;6.738;2023-04-07T14:29:20;13.65;;;7.18;;
48550;SDS011;34397;51.176;6.738;2023-04-07T14:31:53;11.70;;;7.78;;
48550;SDS011;34397;51.176;6.738;2023-04-07T14:34:25;10.27;;;6.72;;
48550;SDS011;34397;51.176;6.738;2023-04-07T14:36:57;9.45;;;6.93;;
48550;SDS011;34397;51.176;6.738;2023-04-07T14:39:28;10.80;;;7.57;;
48550;SDS011;34397;51.176;6.738;2023-04-07T14:42:02;10.85;;;7.30;;
48550;SDS011;34397;51.176;6.738;2023-04-07T14:44:34;8.90;;;6.18;;
48550;SDS011;34397;51.176;6.738;2023-04-07T14:47:06;14.50;;;6.18;;
48550;SDS011;34397;51.176;6.738;2023-04-07T14:49:38;12.70;;;7.05;;
48550;SDS011;34397;51.176;6.738;2023-04-07T14:52:12;10.80;;;5.85;;
48550;SDS011;34397;51.176;6.738;2023-04-07T14:54:50;13.90;;;6.25;;
48550;SDS011;34397;51.176;6.738;2023-04-07T15:00:53;8.60;;;5.07;;
48550;SDS011;34397;51.176;6.738;2023-04-07T15:03:27;9.05;;;5.28;;
48550;SDS011;34397;51.176;6.738;2023-04-07T15:06:51;11.75;;;5.85;;
48550;SDS011;34397;51.176;6.738;2023-04-07T15:09:23;7.82;;;4.97;;
48550;SDS011;34397;51.176;6.738;2023-04-07T15:11:55;8.75;;;5.25;;
48550;SDS011;34397;51.176;6.738;2023-04-07T15:17:57;10.20;;;5.18;;
48550;SDS011;34397;51.176;6.738;2023-04-07T15:20:40;9.80;;;5.15;;
48550;SDS011;34397;51.176;6.738;2023-04-07T15:23:12;10.23;;;5.57;;
48550;SDS011;34397;51.176;6.738;2023-04-07T15:25:46;9.23;;;4.63;;
48550;SDS011;34397;51.176;6.738;2023-04-07T15:28:23;7.22;;;5.05;;
48550;SDS011;34397;51.176;6.738;2023-04-07T15:31:13;7.53;;;4.90;;
48550;SDS011;34397;51.176;6.738;2023-04-07T15:33:59;7.40;;;4.70;;
48550;SDS011;34397;51.176;6.738;2023-04-07T15:36:31;9.20;;;5.30;;
48550;SDS011;34397;51.176;6.738;2023-04-07T15:39:03;11.27;;;5.32;;
48550;SDS011;34397;51.176;6.738;2023-04-07T15:41:36;8.50;;;5.28;;
48550;SDS011;34397;51.176;6.738;2023-04-07T15:44:08;8.90;;;6.18;;
48550;SDS011;34397;51.176;6.738;2023-04-07T15:46:41;8.45;;;5.70;;
48550;SDS011;34397;51.176;6.738;2023-04-07T15:49:13;9.98;;;5.38;;
48550;SDS011;34397;51.176;6.738;2023-04-07T15:51:49;11.20;;;6.20;;
48550;SDS011;34397;51.176;6.738;2023-04-07T15:54:21;8.13;;;4.97;;
48550;SDS011;34397;51.176;6.738;2023-04-07T15:56:52;10.77;;;5.38;;
48550;SDS011;34397;51.176;6.738;2023-04-07T15:59:24;8.93;;;5.22;;
48550;SDS011;34397;51.176;6.738;2023-04-07T16:02:00;9.88;;;5.03;;
48550;SDS011;34397;51.176;6.738;2023-04-07T16:04:32;8.88;;;5.50;;
48550;SDS011;34397;51.176;6.738;2023-04-07T16:07:04;10.55;;;5.05;;